createdAt,value
2022-11-05T00:00:36.145Z,3.38
2022-11-05T00:03:21.961Z,3.67
2022-11-05T00:06:11.093Z,3.55
2022-11-05T00:08:57.580Z,3.40
2022-11-05T00:11:44.756Z,3.63
2022-11-05T00:14:30.560Z,3.30
2022-11-05T00:16:57.747Z,3.67
2022-11-05T00:19:24.982Z,3.33
2022-11-05T00:22:10.649Z,3.33
2022-11-05T00:24:56.381Z,3.38
2022-11-05T00:27:23.606Z,3.10
2022-11-05T00:29:50.800Z,2.97
2022-11-05T00:32:17.991Z,2.92
2022-11-05T00:34:45.219Z,2.95
2022-11-05T00:37:12.563Z,3.22
2022-11-05T00:39:39.846Z,3.10
2022-11-05T00:42:32.873Z,2.80
2022-11-05T00:45:02.882Z,3.13
2022-11-05T00:47:50.297Z,2.70
2022-11-05T00:50:18.662Z,2.95
2022-11-05T00:53:01.333Z,3.22
2022-11-05T00:55:33.523Z,3.47
2022-11-05T00:58:02.975Z,3.33
2022-11-05T01:00:32.379Z,3.33
2022-11-05T01:03:01.636Z,3.00
2022-11-05T01:05:30.360Z,2.83
2022-11-05T01:07:58.472Z,3.10
2022-11-05T01:10:26.476Z,3.10
2022-11-05T01:12:53.750Z,2.80
2022-11-05T01:15:21.342Z,3.00
2022-11-05T01:17:48.683Z,3.10
2022-11-05T01:20:16.626Z,3.10
2022-11-05T01:22:43.852Z,2.75
2022-11-05T01:25:11.134Z,2.75
2022-11-05T01:27:38.857Z,2.80
2022-11-05T01:30:08.615Z,2.88
2022-11-05T01:32:37.088Z,2.60
2022-11-05T01:35:10.564Z,2.83
2022-11-05T01:37:38.058Z,3.15
2022-11-05T01:40:06.110Z,2.40
2022-11-05T01:42:33.674Z,2.38
2022-11-05T01:45:15.121Z,2.47
2022-11-05T01:47:44.756Z,2.70
2022-11-05T01:50:28.778Z,2.60
2022-11-05T01:53:18.782Z,2.60
2022-11-05T01:55:54.532Z,2.45
2022-11-05T01:58:26.311Z,2.60
2022-11-05T02:00:54.880Z,2.28
2022-11-05T02:03:22.772Z,2.35
2022-11-05T02:05:52.830Z,2.35
2022-11-05T02:08:48.665Z,2.30
2022-11-05T02:11:18.884Z,2.30
2022-11-05T02:13:47.632Z,2.13
2022-11-05T02:16:37.642Z,2.20
2022-11-05T02:19:04.782Z,2.20
2022-11-05T02:21:34.976Z,1.80
2022-11-05T02:24:29.743Z,2.05
2022-11-05T02:27:05.648Z,2.60
2022-11-05T02:30:06.453Z,2.00
2022-11-05T02:32:54.712Z,2.15
2022-11-05T02:35:46.989Z,2.30
2022-11-05T02:38:36.263Z,2.30
2022-11-05T02:41:23.960Z,2.15
2022-11-05T02:44:08.897Z,2.10
2022-11-05T02:49:32.989Z,1.67
2022-11-05T02:52:06.512Z,1.70
2022-11-05T02:54:45.754Z,2.10
2022-11-05T02:57:13.015Z,1.73
2022-11-05T02:59:40.186Z,1.67
2022-11-05T03:02:07.696Z,1.83
2022-11-05T03:04:35.183Z,1.90
2022-11-05T03:07:36.456Z,1.90
2022-11-05T03:10:32.646Z,1.42
2022-11-05T03:13:15.311Z,1.42
2022-11-05T03:16:03.255Z,1.30
2022-11-05T03:18:52.420Z,1.52
2022-11-05T03:21:50.207Z,1.33
2022-11-05T03:24:26.500Z,1.20
2022-11-05T03:27:02.680Z,1.30
2022-11-05T03:29:37.494Z,1.40
2022-11-05T03:32:07.939Z,1.55
2022-11-05T03:34:47.903Z,1.30
2022-11-05T03:37:18.509Z,1.20
2022-11-05T03:39:52.007Z,1.67
2022-11-05T03:42:25.827Z,1.30
2022-11-05T03:44:56.719Z,1.30
2022-11-05T03:47:29.578Z,1.40
2022-11-05T03:50:20.082Z,1.30
2022-11-05T03:52:59.177Z,1.40
2022-11-05T03:55:35.395Z,1.48
2022-11-05T03:58:05.990Z,1.35
2022-11-05T04:00:33.455Z,1.58
2022-11-05T04:03:00.785Z,1.40
2022-11-05T04:05:28.180Z,1.40
2022-11-05T04:08:14.633Z,1.10
2022-11-05T04:11:00.557Z,1.20
2022-11-05T04:13:28.250Z,1.30
2022-11-05T04:16:15.406Z,1.23
2022-11-05T04:18:42.896Z,1.20
2022-11-05T04:21:29.263Z,1.40
2022-11-05T04:24:08.516Z,1.20
2022-11-05T04:26:43.772Z,1.40
2022-11-05T04:29:30.117Z,1.00
2022-11-05T04:31:57.408Z,1.13
2022-11-05T04:34:24.918Z,1.13
2022-11-05T04:36:53.160Z,1.20
2022-11-05T04:39:20.754Z,1.20
2022-11-05T04:41:48.809Z,1.30
2022-11-05T04:44:17.242Z,1.40
2022-11-05T04:46:44.460Z,1.58
2022-11-05T04:49:11.694Z,1.35
2022-11-05T04:51:38.948Z,1.20
2022-11-05T04:54:06.170Z,1.23
2022-11-05T04:56:33.556Z,1.10
2022-11-05T04:59:00.773Z,1.27
2022-11-05T05:01:28.217Z,1.30
2022-11-05T05:03:55.933Z,1.20
2022-11-05T05:06:23.974Z,1.40
2022-11-05T05:08:52.026Z,1.33
2022-11-05T05:11:21.312Z,1.23
2022-11-05T05:13:49.388Z,1.40
2022-11-05T05:16:22.570Z,1.30
2022-11-05T05:18:50.767Z,1.20
2022-11-05T05:21:38.643Z,1.30
2022-11-05T05:24:11.465Z,1.58
2022-11-05T05:26:41.784Z,1.50
2022-11-05T05:29:10.079Z,1.38
2022-11-05T05:31:37.477Z,1.63
2022-11-05T05:34:05.920Z,1.30
2022-11-05T05:36:33.396Z,1.50
2022-11-05T05:39:00.598Z,1.50
2022-11-05T05:41:28.037Z,1.40
2022-11-05T05:43:55.234Z,1.70
2022-11-05T05:46:22.607Z,1.60
2022-11-05T05:48:51.899Z,1.48
2022-11-05T05:51:19.719Z,1.70
2022-11-05T05:53:47.341Z,1.50
2022-11-05T05:56:15.287Z,1.52
2022-11-05T05:58:42.845Z,2.00
2022-11-05T06:01:20.020Z,1.55
2022-11-05T06:03:48.408Z,1.80
2022-11-05T06:06:21.229Z,1.73
2022-11-05T06:08:48.868Z,1.58
2022-11-05T06:11:16.300Z,1.70
2022-11-05T06:13:43.657Z,1.70
2022-11-05T06:16:11.317Z,1.77
2022-11-05T06:18:38.623Z,1.80
2022-11-05T06:21:08.785Z,2.00
2022-11-05T06:23:37.753Z,1.80
2022-11-05T06:26:07.313Z,1.52
2022-11-05T06:28:35.445Z,1.60
2022-11-05T06:31:02.776Z,1.63
2022-11-05T06:33:29.988Z,1.85
2022-11-05T06:36:02.402Z,1.77
2022-11-05T06:38:33.258Z,1.95
2022-11-05T06:41:05.741Z,2.22
2022-11-05T06:43:36.270Z,1.92
2022-11-05T06:46:03.688Z,1.90
2022-11-05T06:48:30.898Z,1.98
2022-11-05T06:50:58.396Z,1.80
2022-11-05T06:53:26.404Z,1.95
2022-11-05T06:55:53.714Z,1.90
2022-11-05T06:58:20.916Z,1.80
2022-11-05T07:00:48.272Z,1.80
2022-11-05T07:03:15.969Z,2.17
2022-11-05T07:05:46.379Z,2.00
2022-11-05T07:08:14.140Z,2.05
2022-11-05T07:10:41.416Z,2.00
2022-11-05T07:13:09.212Z,1.83
2022-11-05T07:15:37.486Z,1.60
2022-11-05T07:18:07.191Z,1.60
2022-11-05T07:20:34.898Z,1.80
2022-11-05T07:23:03.973Z,1.88
2022-11-05T07:25:32.791Z,1.70
2022-11-05T07:28:00.613Z,1.70
2022-11-05T07:30:29.145Z,1.52
2022-11-05T07:32:56.557Z,1.55
2022-11-05T07:35:24.362Z,1.70
2022-11-05T07:37:56.429Z,1.80
2022-11-05T07:40:26.327Z,1.70
2022-11-05T07:42:56.203Z,1.90
2022-11-05T07:45:24.058Z,1.90
2022-11-05T07:47:56.374Z,1.60
2022-11-05T07:50:25.653Z,1.95
2022-11-05T07:52:52.856Z,2.17
2022-11-05T07:55:20.784Z,1.92
2022-11-05T07:57:50.119Z,1.70
2022-11-05T08:00:22.781Z,1.83
2022-11-05T08:03:08.136Z,1.92
2022-11-05T08:05:38.555Z,2.00
2022-11-05T08:08:07.490Z,2.13
2022-11-05T08:10:34.936Z,2.80
2022-11-05T08:13:02.780Z,2.50
2022-11-05T08:15:30.529Z,3.10
2022-11-05T08:18:05.101Z,3.30
2022-11-05T08:20:33.211Z,3.75
2022-11-05T08:23:00.486Z,3.45
2022-11-05T08:25:28.344Z,4.63
2022-11-05T08:28:00.322Z,4.80
2022-11-05T08:30:28.276Z,5.07
2022-11-05T08:33:00.733Z,5.28
2022-11-05T08:35:29.040Z,5.50
2022-11-05T08:38:02.639Z,5.88
2022-11-05T08:40:32.161Z,5.53
2022-11-05T08:43:00.772Z,5.63
2022-11-05T08:45:28.337Z,5.55
2022-11-05T08:48:04.380Z,5.50
2022-11-05T08:50:33.453Z,6.28
2022-11-05T08:53:01.022Z,5.38
2022-11-05T08:55:28.378Z,5.78
2022-11-05T08:58:00.053Z,6.00
2022-11-05T09:00:29.544Z,5.97
2022-11-05T09:03:00.956Z,6.18
2022-11-05T09:05:29.047Z,5.85
2022-11-05T09:08:00.796Z,5.88
2022-11-05T09:13:28.332Z,7.10
2022-11-05T09:15:57.817Z,6.95
2022-11-05T09:18:25.298Z,6.53
2022-11-05T09:20:52.826Z,7.00
2022-11-05T09:23:20.107Z,6.65
2022-11-05T09:25:48.062Z,7.30
2022-11-05T09:28:25.486Z,6.70
2022-11-05T09:30:53.412Z,6.50
2022-11-05T09:33:23.399Z,6.45
2022-11-05T09:35:51.814Z,9.60
2022-11-05T09:38:19.748Z,9.82
2022-11-05T09:40:56.400Z,9.18
2022-11-05T09:43:32.008Z,9.10
2022-11-05T09:46:04.550Z,9.27
2022-11-05T09:48:34.024Z,7.72
2022-11-05T09:51:01.687Z,8.23
2022-11-05T09:53:29.037Z,7.45
2022-11-05T09:55:58.694Z,8.73
2022-11-05T09:58:32.231Z,9.70
2022-11-05T10:00:59.864Z,8.85
2022-11-05T10:03:30.115Z,9.23
2022-11-05T10:06:07.614Z,8.80
2022-11-05T10:08:42.097Z,9.20
2022-11-05T10:11:23.472Z,9.57
2022-11-05T10:13:58.584Z,10.10
2022-11-05T10:16:27.663Z,9.20
2022-11-05T10:19:09.903Z,10.23
2022-11-05T10:24:28.192Z,10.43
2022-11-05T10:26:56.499Z,8.70
2022-11-05T10:29:30.027Z,9.18
2022-11-05T10:31:59.812Z,9.85
2022-11-05T10:34:32.183Z,9.27
2022-11-05T10:36:59.623Z,9.63
2022-11-05T10:39:29.955Z,7.78
2022-11-05T10:42:15.054Z,8.43
2022-11-05T10:44:56.428Z,8.48
2022-11-05T10:47:26.515Z,6.60
2022-11-05T10:49:59.554Z,8.13
2022-11-05T10:52:33.815Z,6.45
2022-11-05T10:55:23.811Z,6.53
2022-11-05T10:57:51.488Z,7.55
2022-11-05T11:00:23.969Z,8.05
2022-11-05T11:03:00.101Z,7.95
2022-11-05T11:05:32.284Z,7.75
2022-11-05T11:08:04.075Z,5.75
2022-11-05T11:10:37.565Z,5.90
2022-11-05T11:13:05.504Z,6.57
2022-11-05T11:15:32.885Z,7.00
2022-11-05T11:18:40.280Z,6.93
2022-11-05T11:21:19.748Z,7.60
2022-11-05T11:24:06.480Z,6.82
2022-11-05T11:26:40.245Z,7.40
2022-11-05T11:29:20.400Z,7.57
2022-11-05T11:31:47.947Z,7.70
2022-11-05T11:34:27.505Z,7.35
2022-11-05T11:36:59.103Z,8.00
2022-11-05T11:39:30.442Z,7.82
2022-11-05T11:42:07.902Z,7.65
2022-11-05T11:44:41.767Z,8.23
2022-11-05T11:47:15.616Z,7.70
2022-11-05T11:49:45.876Z,6.70
2022-11-05T11:52:38.425Z,6.80
2022-11-05T11:55:11.567Z,6.57
2022-11-05T11:57:51.572Z,6.80
2022-11-05T12:00:20.495Z,7.30
2022-11-05T12:02:50.594Z,7.32
2022-11-05T12:05:39.774Z,6.60
2022-11-05T12:08:12.873Z,7.10
2022-11-05T12:10:40.029Z,7.28
2022-11-05T12:13:19.484Z,7.25
2022-11-05T12:16:04.740Z,7.10
2022-11-05T12:18:53.179Z,6.90
2022-11-05T12:21:52.097Z,6.72
2022-11-05T12:24:49.624Z,7.18
2022-11-05T12:27:24.279Z,7.00
2022-11-05T12:32:42.939Z,6.32
2022-11-05T12:35:22.508Z,6.50
2022-11-05T12:38:16.173Z,5.93
2022-11-05T12:41:09.201Z,6.78
2022-11-05T12:43:42.579Z,6.40
2022-11-05T12:46:28.488Z,6.38
2022-11-05T12:49:17.202Z,5.90
2022-11-05T12:52:10.497Z,7.15
2022-11-05T12:54:59.321Z,5.93
2022-11-05T12:57:29.761Z,6.13
2022-11-05T13:00:07.537Z,7.25
2022-11-05T13:02:41.781Z,6.60
2022-11-05T13:05:21.709Z,6.80
2022-11-05T13:08:03.013Z,7.50
2022-11-05T13:10:36.689Z,7.45
2022-11-05T13:13:27.375Z,6.80
2022-11-05T13:15:57.271Z,7.95
2022-11-05T13:18:51.270Z,7.18
2022-11-05T13:21:23.283Z,6.90
2022-11-05T13:23:54.369Z,6.40
2022-11-05T13:26:47.468Z,5.93
2022-11-05T13:29:40.963Z,6.10
2022-11-05T13:32:22.758Z,6.50
2022-11-05T13:34:51.171Z,6.38
2022-11-05T13:37:48.124Z,6.68
2022-11-05T13:40:19.493Z,6.20
2022-11-05T13:43:04.772Z,6.10
2022-11-05T13:45:54.477Z,6.38
2022-11-05T13:49:03.007Z,6.75
2022-11-05T13:51:46.215Z,6.43
2022-11-05T13:54:38.142Z,6.20
2022-11-05T13:57:47.176Z,6.15
2022-11-05T14:00:21.222Z,5.95
2022-11-05T14:02:53.934Z,4.47
2022-11-05T14:05:28.722Z,4.40
2022-11-05T14:07:58.050Z,5.10
2022-11-05T14:10:46.861Z,4.20
2022-11-05T14:13:42.817Z,4.70
2022-11-05T14:16:26.344Z,5.35
2022-11-05T14:19:15.152Z,4.93
2022-11-05T14:21:47.850Z,4.50
2022-11-05T14:24:43.334Z,4.40
2022-11-05T14:27:13.566Z,3.90
2022-11-05T14:29:48.847Z,4.78
2022-11-05T14:32:18.877Z,5.22
2022-11-05T14:34:55.724Z,4.90
2022-11-05T14:37:26.822Z,5.03
2022-11-05T14:39:55.772Z,4.82
2022-11-05T14:42:29.531Z,4.80
2022-11-05T14:44:59.833Z,4.70
2022-11-05T14:47:33.788Z,4.82
2022-11-05T14:50:09.193Z,4.95
2022-11-05T14:52:40.063Z,4.55
2022-11-05T14:55:22.917Z,4.72
2022-11-05T14:57:53.116Z,5.05
2022-11-05T15:00:29.430Z,4.38
2022-11-05T15:03:03.009Z,4.57
2022-11-05T15:05:48.861Z,4.65
2022-11-05T15:08:25.255Z,4.07
2022-11-05T15:10:56.693Z,4.75
2022-11-05T15:13:33.573Z,4.60
2022-11-05T15:16:03.130Z,5.45
2022-11-05T15:18:35.405Z,4.20
2022-11-05T15:21:04.803Z,5.07
2022-11-05T15:23:41.140Z,4.78
2022-11-05T15:26:27.923Z,4.97
2022-11-05T15:28:56.284Z,5.35
2022-11-05T15:31:37.350Z,5.20
2022-11-05T15:34:23.463Z,5.40
2022-11-05T15:36:57.106Z,5.15
2022-11-05T15:39:38.182Z,5.53
2022-11-05T15:42:14.232Z,5.22
2022-11-05T15:44:47.123Z,5.60
2022-11-05T15:47:16.440Z,6.00
2022-11-05T15:49:46.655Z,6.07
2022-11-05T15:52:18.934Z,5.93
2022-11-05T15:54:46.594Z,6.00
2022-11-05T15:57:26.776Z,6.20
2022-11-05T15:59:54.440Z,5.82
2022-11-05T16:02:29.889Z,6.32
2022-11-05T16:04:57.959Z,6.18
2022-11-05T16:07:25.835Z,6.80
2022-11-05T16:09:59.730Z,6.70
2022-11-05T16:12:36.983Z,6.40
2022-11-05T16:15:10.270Z,6.55
2022-11-05T16:17:57.617Z,6.75
2022-11-05T16:20:32.306Z,6.45
2022-11-05T16:23:21.589Z,6.93
2022-11-05T16:25:49.141Z,7.45
2022-11-05T16:28:23.237Z,7.15
2022-11-05T16:30:54.945Z,6.85
2022-11-05T16:33:22.527Z,8.02
2022-11-05T16:35:50.791Z,7.10
2022-11-05T16:38:19.547Z,7.32
2022-11-05T16:40:46.911Z,7.68
2022-11-05T16:43:40.455Z,7.22
2022-11-05T16:46:11.977Z,7.57
2022-11-05T16:48:39.167Z,7.85
2022-11-05T16:51:08.381Z,7.13
2022-11-05T16:53:35.585Z,8.18
2022-11-05T16:56:03.472Z,8.10
2022-11-05T16:58:31.163Z,8.27
2022-11-05T17:01:19.592Z,8.88
2022-11-05T17:03:53.247Z,8.20
2022-11-05T17:06:27.797Z,8.27
2022-11-05T17:08:55.156Z,8.43
2022-11-05T17:11:23.640Z,8.95
2022-11-05T17:13:51.089Z,8.75
2022-11-05T17:16:18.723Z,9.52
2022-11-05T17:18:46.036Z,9.30
2022-11-05T17:21:14.147Z,9.02
2022-11-05T17:23:41.412Z,9.93
2022-11-05T17:26:12.960Z,9.30
2022-11-05T17:28:40.828Z,9.65
2022-11-05T17:31:11.516Z,9.57
2022-11-05T17:33:39.185Z,9.75
2022-11-05T17:36:09.139Z,9.77
2022-11-05T17:38:36.820Z,9.30
2022-11-05T17:41:14.652Z,9.60
2022-11-05T17:43:42.387Z,9.18
2022-11-05T17:46:11.987Z,9.77
2022-11-05T17:48:39.664Z,9.10
2022-11-05T17:51:11.128Z,9.40
2022-11-05T17:53:39.031Z,10.02
2022-11-05T17:56:18.367Z,9.65
2022-11-05T17:58:49.509Z,9.18
2022-11-05T18:01:43.164Z,9.30
2022-11-05T18:04:11.371Z,10.27
2022-11-05T18:06:40.197Z,9.85
2022-11-05T18:09:09.616Z,9.98
2022-11-05T18:11:37.758Z,9.75
2022-11-05T18:14:05.506Z,11.18
2022-11-05T18:16:33.260Z,10.02
2022-11-05T18:19:00.587Z,10.70
2022-11-05T18:21:28.213Z,10.38
2022-11-05T18:23:55.445Z,10.95
2022-11-05T18:26:22.725Z,10.40
2022-11-05T18:28:50.005Z,9.57
2022-11-05T18:31:20.586Z,11.00
2022-11-05T18:33:54.592Z,10.48
2022-11-05T18:36:24.674Z,10.80
2022-11-05T18:38:52.767Z,9.43
2022-11-05T18:41:21.418Z,9.63
2022-11-05T18:43:49.097Z,10.02
2022-11-05T18:46:43.015Z,10.02
2022-11-05T18:49:04.668Z,10.20
2022-11-05T18:51:31.913Z,9.75
2022-11-05T18:54:00.545Z,10.77
2022-11-05T18:56:27.847Z,10.48
2022-11-05T18:59:21.949Z,10.55
2022-11-05T19:01:42.733Z,9.45
2022-11-05T19:04:10.884Z,10.40
2022-11-05T19:06:38.876Z,9.73
2022-11-05T19:09:09.648Z,9.73
2022-11-05T19:11:36.884Z,9.10
2022-11-05T19:14:04.190Z,8.85
2022-11-05T19:16:32.290Z,9.55
2022-11-05T19:19:04.502Z,9.80
2022-11-05T19:21:32.411Z,8.95
2022-11-05T19:24:02.422Z,9.65
2022-11-05T19:26:30.816Z,9.95
2022-11-05T19:29:00.388Z,10.57
2022-11-05T19:31:28.772Z,10.07
2022-11-05T19:33:56.381Z,10.38
2022-11-05T19:36:24.277Z,8.98
2022-11-05T19:39:00.663Z,10.27
2022-11-05T19:41:28.308Z,9.63
2022-11-05T19:43:58.125Z,10.35
2022-11-05T19:46:25.702Z,10.95
2022-11-05T19:48:53.146Z,9.55
2022-11-05T19:51:29.015Z,9.60
2022-11-05T19:53:56.640Z,9.18
2022-11-05T19:56:26.506Z,9.30
2022-11-05T19:58:54.477Z,9.27
2022-11-05T20:01:23.816Z,9.88
2022-11-05T20:03:51.492Z,11.55
2022-11-05T20:06:28.713Z,11.88
2022-11-05T20:09:20.607Z,12.27
2022-11-05T20:11:49.307Z,12.68
2022-11-05T20:14:16.908Z,13.15
2022-11-05T20:16:45.268Z,13.02
2022-11-05T20:19:15.846Z,14.80
2022-11-05T20:21:44.359Z,13.70
2022-11-05T20:24:16.141Z,14.90
2022-11-05T20:26:45.965Z,15.43
2022-11-05T20:29:13.209Z,16.77
2022-11-05T20:31:40.394Z,17.58
2022-11-05T20:34:08.857Z,20.15
2022-11-05T20:36:36.098Z,20.98
2022-11-05T20:39:03.876Z,20.10
2022-11-05T20:41:32.119Z,21.13
2022-11-05T20:43:59.721Z,20.67
2022-11-05T20:46:27.301Z,23.05
2022-11-05T20:48:54.801Z,21.92
2022-11-05T20:51:24.138Z,21.40
2022-11-05T20:54:01.118Z,22.20
2022-11-05T20:56:31.565Z,21.33
2022-11-05T20:59:00.275Z,20.75
2022-11-05T21:01:33.397Z,21.30
2022-11-05T21:04:01.599Z,21.90
2022-11-05T21:06:29.255Z,22.15
2022-11-05T21:08:56.708Z,23.17
2022-11-05T21:11:24.262Z,22.45
2022-11-05T21:13:51.647Z,23.00
2022-11-05T21:16:20.378Z,21.73
2022-11-05T21:18:48.465Z,21.60
2022-11-05T21:21:18.796Z,21.63
2022-11-05T21:23:46.520Z,23.23
2022-11-05T21:26:15.190Z,22.83
2022-11-05T21:28:42.842Z,22.73
2022-11-05T21:31:10.466Z,22.50
2022-11-05T21:33:38.528Z,22.55
2022-11-05T21:36:08.800Z,22.75
2022-11-05T21:38:36.943Z,23.50
2022-11-05T21:41:05.253Z,22.42
2022-11-05T21:43:32.674Z,22.48
2022-11-05T21:46:04.337Z,23.65
2022-11-05T21:48:31.958Z,24.17
2022-11-05T21:51:17.937Z,23.38
2022-11-05T21:54:03.837Z,22.13
2022-11-05T21:56:50.213Z,22.52
2022-11-05T21:59:38.332Z,21.55
2022-11-05T22:02:07.527Z,22.60
2022-11-05T22:04:38.659Z,22.25
2022-11-05T22:07:07.399Z,23.00
2022-11-05T22:09:34.671Z,23.73
2022-11-05T22:12:02.749Z,24.20
2022-11-05T22:14:30.593Z,25.02
2022-11-05T22:16:58.539Z,23.27
2022-11-05T22:19:26.144Z,22.95
2022-11-05T22:21:53.910Z,23.40
2022-11-05T22:24:21.467Z,24.10
2022-11-05T22:26:48.827Z,23.35
2022-11-05T22:29:16.572Z,23.42
2022-11-05T22:31:43.863Z,24.13
2022-11-05T22:34:11.721Z,24.45
2022-11-05T22:36:39.468Z,24.10
2022-11-05T22:39:07.009Z,24.48
2022-11-05T22:41:34.569Z,23.75
2022-11-05T22:44:03.259Z,24.45
2022-11-05T22:46:30.881Z,25.40
2022-11-05T22:48:59.011Z,25.95
2022-11-05T22:51:32.522Z,25.05
2022-11-05T22:54:00.721Z,26.95
2022-11-05T22:56:31.587Z,26.58
2022-11-05T22:58:59.539Z,27.15
2022-11-05T23:01:27.874Z,26.00
2022-11-05T23:03:56.638Z,25.50
2022-11-05T23:06:44.972Z,24.85
2022-11-05T23:09:49.656Z,22.13
2022-11-05T23:12:37.929Z,21.38
2022-11-05T23:15:07.579Z,20.45
2022-11-05T23:17:53.371Z,20.75
2022-11-05T23:20:41.997Z,19.17
2022-11-05T23:23:31.857Z,19.85
2022-11-05T23:25:59.914Z,18.02
2022-11-05T23:28:27.191Z,15.15
2022-11-05T23:31:13.424Z,16.98
2022-11-05T23:33:40.640Z,16.80
2022-11-05T23:36:31.324Z,15.10
2022-11-05T23:38:58.526Z,15.90
2022-11-05T23:41:43.973Z,15.70
2022-11-05T23:44:29.637Z,15.00
2022-11-05T23:47:15.287Z,13.73
2022-11-05T23:49:42.538Z,15.20
2022-11-05T23:52:09.797Z,14.80
2022-11-05T23:54:36.997Z,13.60
2022-11-05T23:57:04.703Z,14.50
2022-11-05T23:59:31.943Z,13.50
